Main page
METAR-TAF:

METAR-TAF

Airports :

Cherif Al Idrissi Airport

Al Hoceima, Morocco

latitude: 35-11N, longitude: 003-51W, elevation: 27 m

Current weather observation

The report was made 30 minutes ago, at 19:00 UTC
Wind 4 kt from the South/Southeast
Temperature 11°C
Humidity 82%
Pressure 1016 hPa
Visibility 10 km or more
Few clouds at a height of 2600 ft

METAR: GMTA 221900Z 16004KT 9999 FEW026 11/08 Q1016 NOSIG

Time: 20:30 (19:30 UTC)

Forecast

The report was made 2 hours and 30 minutes ago, at 17:00 UTC
Forecast valid from 22 at 18 UTC to 23 at 24 UTC
Wind 2 kt from variable directions
Visibility 10 km or more
Few clouds at a height of 1600 ft
Scattered clouds at a height of 3000 ft

TAF: GMTA 221700Z 2218/2324 VRB02KT 9999 FEW016 SCT030

Weather observations and forecasts of more than 4000 airports (METAR and TAF reports).

The available stations are represented by yellow and red dots on the map.

Hover mouse over dot to see the name of the station.

Then click to see weather observations and forecasts.

To change the map : click on the green buttons with a black cross to zoom in, on the green button with a dash to zoom out, or on the green arrows for adjacent maps.


METAR-TAF: